sensor_id;sensor_type;location;lat;lon;timestamp;pressure;altitude;pressure_sealevel;temperature;humidity
41654;BME280;68687;52.030;7.110;2024-02-26T00:00:58;99261.31;;;3.97;100.00
41654;BME280;68687;52.030;7.110;2024-02-26T00:03:23;99267.75;;;4.02;100.00
41654;BME280;68687;52.030;7.110;2024-02-26T00:05:48;99257.41;;;4.16;100.00
41654;BME280;68687;52.030;7.110;2024-02-26T00:08:14;99268.16;;;3.91;100.00
41654;BME280;68687;52.030;7.110;2024-02-26T00:10:39;99269.69;;;4.09;100.00
41654;BME280;68687;52.030;7.110;2024-02-26T00:13:04;99265.53;;;4.14;100.00
41654;BME280;68687;52.030;7.110;2024-02-26T00:15:30;99259.34;;;4.22;100.00
41654;BME280;68687;52.030;7.110;2024-02-26T00:17:55;99258.75;;;4.12;100.00
41654;BME280;68687;52.030;7.110;2024-02-26T00:20:20;99257.47;;;3.99;100.00
41654;BME280;68687;52.030;7.110;2024-02-26T00:22:46;99255.09;;;4.13;100.00
41654;BME280;68687;52.030;7.110;2024-02-26T00:25:11;99256.47;;;4.00;100.00
41654;BME280;68687;52.030;7.110;2024-02-26T00:27:37;99258.53;;;4.21;100.00
41654;BME280;68687;52.030;7.110;2024-02-26T00:30:04;99256.22;;;4.18;100.00
41654;BME280;68687;52.030;7.110;2024-02-26T00:32:30;99255.31;;;4.26;100.00
41654;BME280;68687;52.030;7.110;2024-02-26T00:34:55;99254.75;;;4.16;100.00
41654;BME280;68687;52.030;7.110;2024-02-26T00:37:21;99249.91;;;4.19;100.00
41654;BME280;68687;52.030;7.110;2024-02-26T00:39:46;99249.72;;;4.21;100.00
41654;BME280;68687;52.030;7.110;2024-02-26T00:42:12;99251.38;;;4.22;100.00
41654;BME280;68687;52.030;7.110;2024-02-26T00:44:37;99248.81;;;4.06;100.00
41654;BME280;68687;52.030;7.110;2024-02-26T00:47:02;99254.47;;;4.02;100.00
41654;BME280;68687;52.030;7.110;2024-02-26T00:49:28;99268.03;;;4.16;100.00
41654;BME280;68687;52.030;7.110;2024-02-26T00:51:53;99264.28;;;4.02;100.00
41654;BME280;68687;52.030;7.110;2024-02-26T00:54:18;99267.44;;;3.97;100.00
41654;BME280;68687;52.030;7.110;2024-02-26T00:56:44;99263.78;;;3.98;100.00
41654;BME280;68687;52.030;7.110;2024-02-26T00:59:09;99259.53;;;3.89;100.00
41654;BME280;68687;52.030;7.110;2024-02-26T01:01:35;99256.59;;;3.84;100.00
41654;BME280;68687;52.030;7.110;2024-02-26T01:04:00;99258.88;;;3.87;100.00
41654;BME280;68687;52.030;7.110;2024-02-26T01:06:25;99252.00;;;4.01;100.00
41654;BME280;68687;52.030;7.110;2024-02-26T01:08:51;99248.47;;;4.09;100.00
41654;BME280;68687;52.030;7.110;2024-02-26T01:11:16;99240.38;;;4.02;100.00
41654;BME280;68687;52.030;7.110;2024-02-26T01:13:41;99241.59;;;3.91;100.00
41654;BME280;68687;52.030;7.110;2024-02-26T01:16:07;99238.19;;;4.06;100.00
41654;BME280;68687;52.030;7.110;2024-02-26T01:18:32;99239.25;;;3.96;100.00
41654;BME280;68687;52.030;7.110;2024-02-26T01:20:57;99244.94;;;4.16;100.00
41654;BME280;68687;52.030;7.110;2024-02-26T01:23:23;99242.47;;;4.15;100.00
41654;BME280;68687;52.030;7.110;2024-02-26T01:25:48;99236.19;;;4.08;100.00
41654;BME280;68687;52.030;7.110;2024-02-26T01:28:14;99248.38;;;4.25;100.00
41654;BME280;68687;52.030;7.110;2024-02-26T01:30:39;99235.97;;;4.17;100.00
41654;BME280;68687;52.030;7.110;2024-02-26T01:33:05;99233.03;;;4.12;100.00
41654;BME280;68687;52.030;7.110;2024-02-26T01:35:30;99229.22;;;4.07;100.00
41654;BME280;68687;52.030;7.110;2024-02-26T01:37:55;99232.88;;;4.06;100.00
41654;BME280;68687;52.030;7.110;2024-02-26T01:40:21;99225.75;;;4.29;100.00
41654;BME280;68687;52.030;7.110;2024-02-26T01:42:47;99225.94;;;4.27;100.00
41654;BME280;68687;52.030;7.110;2024-02-26T01:45:17;99228.34;;;4.37;100.00
41654;BME280;68687;52.030;7.110;2024-02-26T01:47:50;99228.34;;;4.37;100.00
41654;BME280;68687;52.030;7.110;2024-02-26T01:50:17;99229.84;;;4.40;100.00
41654;BME280;68687;52.030;7.110;2024-02-26T01:52:42;99235.72;;;4.50;100.00
41654;BME280;68687;52.030;7.110;2024-02-26T01:55:08;99231.41;;;4.49;100.00
41654;BME280;68687;52.030;7.110;2024-02-26T01:57:33;99234.72;;;4.51;100.00
41654;BME280;68687;52.030;7.110;2024-02-26T01:59:59;99241.63;;;4.60;100.00
41654;BME280;68687;52.030;7.110;2024-02-26T02:02:25;99254.53;;;4.63;100.00
41654;BME280;68687;52.030;7.110;2024-02-26T02:04:51;99254.16;;;4.51;100.00
41654;BME280;68687;52.030;7.110;2024-02-26T02:07:18;99257.38;;;4.61;100.00
41654;BME280;68687;52.030;7.110;2024-02-26T02:09:44;99255.50;;;4.70;100.00
41654;BME280;68687;52.030;7.110;2024-02-26T02:12:10;99259.69;;;4.64;100.00
41654;BME280;68687;52.030;7.110;2024-02-26T02:14:36;99264.34;;;4.62;100.00
41654;BME280;68687;52.030;7.110;2024-02-26T02:17:01;99269.91;;;4.76;100.00
41654;BME280;68687;52.030;7.110;2024-02-26T02:19:26;99263.75;;;4.75;100.00
41654;BME280;68687;52.030;7.110;2024-02-26T02:21:52;99260.75;;;4.78;100.00
41654;BME280;68687;52.030;7.110;2024-02-26T02:24:17;99265.31;;;4.70;100.00
41654;BME280;68687;52.030;7.110;2024-02-26T02:26:42;99261.81;;;4.69;100.00
41654;BME280;68687;52.030;7.110;2024-02-26T02:29:08;99259.69;;;4.64;100.00
41654;BME280;68687;52.030;7.110;2024-02-26T02:31:34;99268.78;;;4.70;100.00
41654;BME280;68687;52.030;7.110;2024-02-26T02:34:00;99269.25;;;4.74;100.00
41654;BME280;68687;52.030;7.110;2024-02-26T02:36:25;99273.28;;;4.70;100.00
41654;BME280;68687;52.030;7.110;2024-02-26T02:38:51;99276.00;;;4.61;100.00
41654;BME280;68687;52.030;7.110;2024-02-26T02:41:17;99275.88;;;4.78;100.00
41654;BME280;68687;52.030;7.110;2024-02-26T02:43:43;99274.81;;;4.64;100.00
41654;BME280;68687;52.030;7.110;2024-02-26T02:46:08;99283.91;;;4.70;100.00
41654;BME280;68687;52.030;7.110;2024-02-26T02:48:34;99284.97;;;4.60;100.00
41654;BME280;68687;52.030;7.110;2024-02-26T02:50:59;99286.22;;;4.50;100.00
41654;BME280;68687;52.030;7.110;2024-02-26T02:53:24;99280.78;;;4.66;100.00
41654;BME280;68687;52.030;7.110;2024-02-26T02:55:50;99282.03;;;4.55;100.00
41654;BME280;68687;52.030;7.110;2024-02-26T02:58:15;99287.44;;;4.62;100.00
41654;BME280;68687;52.030;7.110;2024-02-26T03:00:41;99289.34;;;4.53;100.00
41654;BME280;68687;52.030;7.110;2024-02-26T03:03:06;99287.03;;;4.50;100.00
41654;BME280;68687;52.030;7.110;2024-02-26T03:05:31;99295.84;;;4.51;100.00
41654;BME280;68687;52.030;7.110;2024-02-26T03:07:57;99298.44;;;4.59;100.00
41654;BME280;68687;52.030;7.110;2024-02-26T03:10:23;99297.59;;;4.58;100.00
41654;BME280;68687;52.030;7.110;2024-02-26T03:12:48;99289.06;;;4.48;100.00
41654;BME280;68687;52.030;7.110;2024-02-26T03:15:13;99296.19;;;4.48;100.00
41654;BME280;68687;52.030;7.110;2024-02-26T03:17:38;99296.31;;;4.54;100.00
41654;BME280;68687;52.030;7.110;2024-02-26T03:20:05;99304.81;;;4.50;100.00
41654;BME280;68687;52.030;7.110;2024-02-26T03:22:33;99290.59;;;4.43;100.00
41654;BME280;68687;52.030;7.110;2024-02-26T03:24:58;99302.22;;;4.64;100.00
41654;BME280;68687;52.030;7.110;2024-02-26T03:27:23;99297.75;;;4.42;100.00
41654;BME280;68687;52.030;7.110;2024-02-26T03:29:49;99294.91;;;4.44;100.00
41654;BME280;68687;52.030;7.110;2024-02-26T03:32:14;99300.69;;;4.47;100.00
41654;BME280;68687;52.030;7.110;2024-02-26T03:34:39;99297.50;;;4.52;100.00
41654;BME280;68687;52.030;7.110;2024-02-26T03:37:05;99304.34;;;4.46;100.00
41654;BME280;68687;52.030;7.110;2024-02-26T03:39:32;99300.34;;;4.50;100.00
41654;BME280;68687;52.030;7.110;2024-02-26T03:41:57;99296.25;;;4.62;100.00
41654;BME280;68687;52.030;7.110;2024-02-26T03:44:23;99297.50;;;4.52;100.00
41654;BME280;68687;52.030;7.110;2024-02-26T03:46:48;99294.19;;;4.50;100.00
41654;BME280;68687;52.030;7.110;2024-02-26T03:49:13;99299.25;;;4.59;100.00
41654;BME280;68687;52.030;7.110;2024-02-26T03:51:39;99303.88;;;4.43;100.00
41654;BME280;68687;52.030;7.110;2024-02-26T03:54:04;99302.06;;;4.35;100.00
41654;BME280;68687;52.030;7.110;2024-02-26T03:56:30;99305.28;;;4.53;100.00
41654;BME280;68687;52.030;7.110;2024-02-26T03:58:55;99311.03;;;4.42;100.00
41654;BME280;68687;52.030;7.110;2024-02-26T04:01:20;99305.00;;;4.48;100.00
41654;BME280;68687;52.030;7.110;2024-02-26T04:03:46;99308.78;;;4.54;100.00
41654;BME280;68687;52.030;7.110;2024-02-26T04:06:11;99311.50;;;4.46;100.00
41654;BME280;68687;52.030;7.110;2024-02-26T04:08:39;99309.59;;;4.54;100.00
41654;BME280;68687;52.030;7.110;2024-02-26T04:11:05;99306.94;;;4.54;100.00
41654;BME280;68687;52.030;7.110;2024-02-26T04:13:33;99322.06;;;4.54;100.00
41654;BME280;68687;52.030;7.110;2024-02-26T04:15:58;99321.34;;;4.60;100.00
41654;BME280;68687;52.030;7.110;2024-02-26T04:18:24;99324.00;;;4.60;100.00
41654;BME280;68687;52.030;7.110;2024-02-26T04:20:49;99319.53;;;4.60;100.00
41654;BME280;68687;52.030;7.110;2024-02-26T04:23:16;99328.84;;;4.79;100.00
41654;BME280;68687;52.030;7.110;2024-02-26T04:25:41;99330.44;;;4.65;100.00
41654;BME280;68687;52.030;7.110;2024-02-26T04:28:07;99328.69;;;4.58;100.00
41654;BME280;68687;52.030;7.110;2024-02-26T04:30:32;99330.50;;;4.80;100.00
41654;BME280;68687;52.030;7.110;2024-02-26T04:32:57;99334.81;;;4.58;100.00
41654;BME280;68687;52.030;7.110;2024-02-26T04:35:23;99329.50;;;4.58;100.00
41654;BME280;68687;52.030;7.110;2024-02-26T04:37:49;99336.63;;;4.66;100.00
41654;BME280;68687;52.030;7.110;2024-02-26T04:40:14;99344.22;;;4.69;100.00
41654;BME280;68687;52.030;7.110;2024-02-26T04:42:40;99344.06;;;4.71;100.00
41654;BME280;68687;52.030;7.110;2024-02-26T04:45:06;99342.88;;;4.73;100.00
41654;BME280;68687;52.030;7.110;2024-02-26T04:47:33;99350.75;;;4.58;100.00
41654;BME280;68687;52.030;7.110;2024-02-26T04:49:59;99359.03;;;4.63;100.00
41654;BME280;68687;52.030;7.110;2024-02-26T04:52:25;99358.97;;;4.49;100.00
41654;BME280;68687;52.030;7.110;2024-02-26T04:54:50;99350.47;;;4.53;100.00
41654;BME280;68687;52.030;7.110;2024-02-26T04:57:16;99351.72;;;4.43;100.00
41654;BME280;68687;52.030;7.110;2024-02-26T04:59:43;99370.03;;;4.60;100.00
41654;BME280;68687;52.030;7.110;2024-02-26T05:02:10;99372.13;;;4.42;100.00
41654;BME280;68687;52.030;7.110;2024-02-26T05:04:35;99372.78;;;4.44;100.00
41654;BME280;68687;52.030;7.110;2024-02-26T05:07:00;99374.28;;;4.47;100.00
41654;BME280;68687;52.030;7.110;2024-02-26T05:09:26;99374.50;;;4.29;100.00
41654;BME280;68687;52.030;7.110;2024-02-26T05:11:51;99379.47;;;4.32;100.00
41654;BME280;68687;52.030;7.110;2024-02-26T05:14:16;99374.88;;;4.26;100.00
41654;BME280;68687;52.030;7.110;2024-02-26T05:16:42;99367.25;;;4.23;100.00
41654;BME280;68687;52.030;7.110;2024-02-26T05:19:07;99372.91;;;4.20;100.00
41654;BME280;68687;52.030;7.110;2024-02-26T05:21:32;99384.06;;;4.15;100.00
41654;BME280;68687;52.030;7.110;2024-02-26T05:23:59;99387.53;;;4.16;100.00
41654;BME280;68687;52.030;7.110;2024-02-26T05:26:24;99377.28;;;4.04;100.00
41654;BME280;68687;52.030;7.110;2024-02-26T05:28:49;99384.72;;;4.09;100.00
41654;BME280;68687;52.030;7.110;2024-02-26T05:31:16;99389.22;;;4.09;100.00
41654;BME280;68687;52.030;7.110;2024-02-26T05:33:41;99389.59;;;3.97;100.00
41654;BME280;68687;52.030;7.110;2024-02-26T05:36:07;99391.25;;;3.98;100.00
41654;BME280;68687;52.030;7.110;2024-02-26T05:38:32;99390.56;;;4.04;100.00
41654;BME280;68687;52.030;7.110;2024-02-26T05:40:58;99385.63;;;3.93;100.00
41654;BME280;68687;52.030;7.110;2024-02-26T05:43:24;99394.84;;;4.14;100.00
41654;BME280;68687;52.030;7.110;2024-02-26T05:45:50;99392.69;;;4.09;100.00
41654;BME280;68687;52.030;7.110;2024-02-26T05:48:15;99388.06;;;4.03;100.00
41654;BME280;68687;52.030;7.110;2024-02-26T05:50:41;99398.16;;;4.08;100.00
41654;BME280;68687;52.030;7.110;2024-02-26T05:53:06;99398.69;;;4.03;100.00
41654;BME280;68687;52.030;7.110;2024-02-26T05:55:31;99400.69;;;4.01;100.00
41654;BME280;68687;52.030;7.110;2024-02-26T05:57:56;99400.72;;;3.93;100.00
41654;BME280;68687;52.030;7.110;2024-02-26T06:00:25;99395.06;;;3.96;100.00
41654;BME280;68687;52.030;7.110;2024-02-26T06:02:53;99397.38;;;3.99;100.00
41654;BME280;68687;52.030;7.110;2024-02-26T06:05:24;99410.53;;;3.92;100.00
41654;BME280;68687;52.030;7.110;2024-02-26T06:07:53;99391.28;;;3.90;100.00
41654;BME280;68687;52.030;7.110;2024-02-26T06:10:20;99395.59;;;3.91;100.00
41654;BME280;68687;52.030;7.110;2024-02-26T06:12:46;99400.91;;;3.91;100.00
41654;BME280;68687;52.030;7.110;2024-02-26T06:15:12;99392.91;;;3.99;100.00
41654;BME280;68687;52.030;7.110;2024-02-26T06:17:40;99401.53;;;4.01;100.00
41654;BME280;68687;52.030;7.110;2024-02-26T06:20:06;99392.25;;;3.97;100.00
41654;BME280;68687;52.030;7.110;2024-02-26T06:22:32;99401.25;;;3.88;100.00
41654;BME280;68687;52.030;7.110;2024-02-26T06:24:57;99393.91;;;3.98;100.00
41654;BME280;68687;52.030;7.110;2024-02-26T06:27:26;99397.94;;;3.86;100.00
41654;BME280;68687;52.030;7.110;2024-02-26T06:29:51;99401.72;;;3.92;100.00
41654;BME280;68687;52.030;7.110;2024-02-26T06:32:16;99412.34;;;3.92;100.00
41654;BME280;68687;52.030;7.110;2024-02-26T06:34:42;99416.81;;;3.91;100.00
41654;BME280;68687;52.030;7.110;2024-02-26T06:37:07;99414.50;;;3.80;100.00
41654;BME280;68687;52.030;7.110;2024-02-26T06:39:33;99409.22;;;3.80;100.00
41654;BME280;68687;52.030;7.110;2024-02-26T06:41:58;99419.47;;;3.83;100.00
41654;BME280;68687;52.030;7.110;2024-02-26T06:44:27;99416.16;;;3.81;100.00
41654;BME280;68687;52.030;7.110;2024-02-26T06:46:57;99424.78;;;3.83;100.00
41654;BME280;68687;52.030;7.110;2024-02-26T06:49:23;99416.16;;;3.81;100.00
41654;BME280;68687;52.030;7.110;2024-02-26T06:51:48;99418.00;;;3.89;100.00
41654;BME280;68687;52.030;7.110;2024-02-26T06:54:14;99420.16;;;3.77;100.00
41654;BME280;68687;52.030;7.110;2024-02-26T06:56:39;99431.78;;;3.76;100.00
41654;BME280;68687;52.030;7.110;2024-02-26T06:59:04;99431.97;;;3.75;100.00
41654;BME280;68687;52.030;7.110;2024-02-26T07:01:30;99426.31;;;3.78;100.00
41654;BME280;68687;52.030;7.110;2024-02-26T07:03:56;99415.88;;;3.68;100.00
41654;BME280;68687;52.030;7.110;2024-02-26T07:06:21;99432.94;;;3.82;100.00
41654;BME280;68687;52.030;7.110;2024-02-26T07:11:20;99432.75;;;3.91;100.00
41654;BME280;68687;52.030;7.110;2024-02-26T07:13:47;99435.41;;;3.91;100.00
41654;BME280;68687;52.030;7.110;2024-02-26T07:16:12;99435.59;;;3.90;100.00
41654;BME280;68687;52.030;7.110;2024-02-26T07:18:39;99435.56;;;3.98;100.00
41654;BME280;68687;52.030;7.110;2024-02-26T07:21:07;99438.38;;;3.96;100.00
41654;BME280;68687;52.030;7.110;2024-02-26T07:23:33;99432.56;;;4.01;100.00
41654;BME280;68687;52.030;7.110;2024-02-26T07:25:58;99427.28;;;3.93;100.00
41654;BME280;68687;52.030;7.110;2024-02-26T07:28:27;99419.63;;;3.98;100.00
41654;BME280;68687;52.030;7.110;2024-02-26T07:30:52;99420.50;;;3.90;100.00
41654;BME280;68687;52.030;7.110;2024-02-26T07:33:17;99426.97;;;3.88;100.00
41654;BME280;68687;52.030;7.110;2024-02-26T07:35:43;99429.78;;;3.86;100.00
41654;BME280;68687;52.030;7.110;2024-02-26T07:38:08;99436.75;;;3.87;100.00
41654;BME280;68687;52.030;7.110;2024-02-26T07:40:34;99432.09;;;3.89;100.00
41654;BME280;68687;52.030;7.110;2024-02-26T07:42:59;99438.72;;;3.93;100.00
41654;BME280;68687;52.030;7.110;2024-02-26T07:45:24;99435.09;;;3.86;100.00
41654;BME280;68687;52.030;7.110;2024-02-26T07:47:50;99442.91;;;3.88;100.00
41654;BME280;68687;52.030;7.110;2024-02-26T07:50:17;99446.00;;;3.99;100.00
41654;BME280;68687;52.030;7.110;2024-02-26T07:52:45;99446.34;;;3.96;100.00
41654;BME280;68687;52.030;7.110;2024-02-26T07:55:11;99450.00;;;3.95;100.00
41654;BME280;68687;52.030;7.110;2024-02-26T07:57:36;99453.16;;;3.99;100.00
41654;BME280;68687;52.030;7.110;2024-02-26T08:00:04;99463.75;;;4.07;100.00
41654;BME280;68687;52.030;7.110;2024-02-26T08:02:34;99465.91;;;4.12;100.00
41654;BME280;68687;52.030;7.110;2024-02-26T08:04:59;99463.91;;;4.14;100.00
41654;BME280;68687;52.030;7.110;2024-02-26T08:07:25;99469.53;;;4.11;100.00
41654;BME280;68687;52.030;7.110;2024-02-26T08:12:46;99486.13;;;4.21;100.00
41654;BME280;68687;52.030;7.110;2024-02-26T08:15:11;99489.09;;;4.26;100.00
41654;BME280;68687;52.030;7.110;2024-02-26T08:17:37;99489.25;;;4.24;100.00
41654;BME280;68687;52.030;7.110;2024-02-26T08:20:02;99497.19;;;4.32;100.00
41654;BME280;68687;52.030;7.110;2024-02-26T08:22:31;99485.09;;;4.30;100.00
41654;BME280;68687;52.030;7.110;2024-02-26T08:24:56;99496.06;;;4.27;100.00
41654;BME280;68687;52.030;7.110;2024-02-26T08:27:25;99487.09;;;4.28;100.00
41654;BME280;68687;52.030;7.110;2024-02-26T08:29:50;99501.03;;;4.30;100.00
41654;BME280;68687;52.030;7.110;2024-02-26T08:32:15;99504.56;;;4.22;100.00
41654;BME280;68687;52.030;7.110;2024-02-26T08:34:41;99504.84;;;4.27;100.00
41654;BME280;68687;52.030;7.110;2024-02-26T08:37:07;99506.16;;;4.40;100.00
41654;BME280;68687;52.030;7.110;2024-02-26T08:39:32;99509.66;;;4.40;100.00
41654;BME280;68687;52.030;7.110;2024-02-26T08:41:58;99517.44;;;4.42;100.00
41654;BME280;68687;52.030;7.110;2024-02-26T08:44:23;99516.13;;;4.38;100.00
41654;BME280;68687;52.030;7.110;2024-02-26T08:46:48;99508.97;;;4.38;100.00
41654;BME280;68687;52.030;7.110;2024-02-26T08:49:15;99518.25;;;4.50;100.00
41654;BME280;68687;52.030;7.110;2024-02-26T08:51:42;99519.91;;;4.51;100.00
41654;BME280;68687;52.030;7.110;2024-02-26T08:54:08;99523.22;;;4.53;100.00
41654;BME280;68687;52.030;7.110;2024-02-26T08:56:34;99526.00;;;4.60;100.00
41654;BME280;68687;52.030;7.110;2024-02-26T08:59:02;99530.16;;;4.62;100.00
41654;BME280;68687;52.030;7.110;2024-02-26T09:01:32;99534.81;;;4.69;100.00
41654;BME280;68687;52.030;7.110;2024-02-26T09:03:58;99546.09;;;4.71;100.00
41654;BME280;68687;52.030;7.110;2024-02-26T09:06:23;99533.44;;;4.73;100.00
41654;BME280;68687;52.030;7.110;2024-02-26T09:08:48;99536.06;;;4.81;100.00
41654;BME280;68687;52.030;7.110;2024-02-26T09:11:14;99535.47;;;4.71;100.00
41654;BME280;68687;52.030;7.110;2024-02-26T09:13:39;99554.38;;;4.76;100.00
41654;BME280;68687;52.030;7.110;2024-02-26T09:16:13;99556.72;;;4.71;100.00
41654;BME280;68687;52.030;7.110;2024-02-26T09:18:42;99554.72;;;4.73;100.00
41654;BME280;68687;52.030;7.110;2024-02-26T09:21:10;99554.06;;;4.62;100.00
41654;BME280;68687;52.030;7.110;2024-02-26T09:23:36;99565.88;;;4.68;100.00
41654;BME280;68687;52.030;7.110;2024-02-26T09:26:01;99555.06;;;4.70;100.00
41654;BME280;68687;52.030;7.110;2024-02-26T09:28:27;99565.00;;;4.76;100.00
41654;BME280;68687;52.030;7.110;2024-02-26T09:30:52;99560.91;;;4.57;100.00
41654;BME280;68687;52.030;7.110;2024-02-26T09:33:18;99569.00;;;4.72;100.00
41654;BME280;68687;52.030;7.110;2024-02-26T09:35:44;99570.31;;;4.76;100.00
41654;BME280;68687;52.030;7.110;2024-02-26T09:38:12;99575.59;;;4.84;100.00
41654;BME280;68687;52.030;7.110;2024-02-26T09:40:39;99583.53;;;4.92;100.00
41654;BME280;68687;52.030;7.110;2024-02-26T09:43:05;99583.53;;;4.92;100.00
41654;BME280;68687;52.030;7.110;2024-02-26T09:45:31;99586.59;;;4.81;100.00
41654;BME280;68687;52.030;7.110;2024-02-26T09:47:58;99579.78;;;4.78;100.00
41654;BME280;68687;52.030;7.110;2024-02-26T09:50:24;99585.25;;;4.85;100.00
41654;BME280;68687;52.030;7.110;2024-02-26T09:52:56;99590.25;;;4.80;100.00
41654;BME280;68687;52.030;7.110;2024-02-26T09:55:27;99586.25;;;4.84;100.00
41654;BME280;68687;52.030;7.110;2024-02-26T09:57:53;99597.00;;;4.90;100.00
41654;BME280;68687;52.030;7.110;2024-02-26T10:00:21;99604.84;;;4.84;100.00
41654;BME280;68687;52.030;7.110;2024-02-26T10:02:47;99616.31;;;4.84;100.00
41654;BME280;68687;52.030;7.110;2024-02-26T10:05:16;99631.06;;;5.03;100.00
41654;BME280;68687;52.030;7.110;2024-02-26T10:07:42;99638.34;;;5.09;100.00
41654;BME280;68687;52.030;7.110;2024-02-26T10:10:13;99632.22;;;5.01;100.00
41654;BME280;68687;52.030;7.110;2024-02-26T10:12:39;99633.41;;;4.98;100.00
41654;BME280;68687;52.030;7.110;2024-02-26T10:15:10;99626.69;;;5.10;100.00
41654;BME280;68687;52.030;7.110;2024-02-26T10:17:36;99626.56;;;5.04;100.00
41654;BME280;68687;52.030;7.110;2024-02-26T10:20:13;99645.28;;;5.18;100.00
41654;BME280;68687;52.030;7.110;2024-02-26T10:22:43;99634.97;;;5.15;100.00
41654;BME280;68687;52.030;7.110;2024-02-26T10:25:08;99636.81;;;5.15;100.00
41654;BME280;68687;52.030;7.110;2024-02-26T10:27:34;99644.34;;;5.03;100.00
41654;BME280;68687;52.030;7.110;2024-02-26T10:30:23;99649.31;;;5.06;100.00
41654;BME280;68687;52.030;7.110;2024-02-26T10:36:12;99655.66;;;5.05;100.00
41654;BME280;68687;52.030;7.110;2024-02-26T10:38:38;99663.09;;;5.10;100.00
41654;BME280;68687;52.030;7.110;2024-02-26T10:41:06;99655.66;;;5.05;100.00
41654;BME280;68687;52.030;7.110;2024-02-26T10:43:33;99658.97;;;5.07;100.00
41654;BME280;68687;52.030;7.110;2024-02-26T10:45:59;99664.50;;;4.97;100.00
41654;BME280;68687;52.030;7.110;2024-02-26T10:48:24;99670.78;;;5.05;100.00
41654;BME280;68687;52.030;7.110;2024-02-26T10:50:50;99669.44;;;5.09;100.00
41654;BME280;68687;52.030;7.110;2024-02-26T10:53:22;99673.44;;;5.05;100.00
41654;BME280;68687;52.030;7.110;2024-02-26T10:56:08;99677.78;;;4.97;100.00
41654;BME280;68687;52.030;7.110;2024-02-26T10:58:35;99680.78;;;4.94;100.00
41654;BME280;68687;52.030;7.110;2024-02-26T11:01:01;99677.28;;;5.02;100.00
41654;BME280;68687;52.030;7.110;2024-02-26T11:03:28;99696.59;;;4.96;100.00
41654;BME280;68687;52.030;7.110;2024-02-26T11:05:57;99682.94;;;4.99;100.00
41654;BME280;68687;52.030;7.110;2024-02-26T11:08:24;99686.59;;;4.98;100.00
41654;BME280;68687;52.030;7.110;2024-02-26T11:10:52;99692.88;;;5.05;100.00
41654;BME280;68687;52.030;7.110;2024-02-26T11:13:19;99702.53;;;5.06;100.00
41654;BME280;68687;52.030;7.110;2024-02-26T11:15:46;99693.91;;;4.96;100.00
41654;BME280;68687;52.030;7.110;2024-02-26T11:18:15;99700.56;;;4.92;100.00
41654;BME280;68687;52.030;7.110;2024-02-26T11:20:42;99710.19;;;4.93;100.00
41654;BME280;68687;52.030;7.110;2024-02-26T11:23:08;99702.56;;;4.90;100.00
41654;BME280;68687;52.030;7.110;2024-02-26T11:25:35;99700.06;;;4.96;100.00
41654;BME280;68687;52.030;7.110;2024-02-26T11:28:04;99702.91;;;4.95;100.00
41654;BME280;68687;52.030;7.110;2024-02-26T11:30:33;99703.72;;;4.95;100.00
41654;BME280;68687;52.030;7.110;2024-02-26T11:33:00;99709.88;;;4.96;100.00
41654;BME280;68687;52.030;7.110;2024-02-26T11:35:26;99697.06;;;4.91;100.00
41654;BME280;68687;52.030;7.110;2024-02-26T11:37:54;99699.56;;;4.93;100.00
41654;BME280;68687;52.030;7.110;2024-02-26T11:40:25;99702.06;;;4.86;100.00
41654;BME280;68687;52.030;7.110;2024-02-26T11:42:51;99713.53;;;4.87;100.00
41654;BME280;68687;52.030;7.110;2024-02-26T11:48:14;99708.53;;;4.92;100.00
41654;BME280;68687;52.030;7.110;2024-02-26T11:50:41;99710.53;;;4.90;100.00
41654;BME280;68687;52.030;7.110;2024-02-26T11:53:27;99722.69;;;4.84;100.00
41654;BME280;68687;52.030;7.110;2024-02-26T11:59:13;99725.50;;;4.83;100.00
41654;BME280;68687;52.030;7.110;2024-02-26T12:01:58;99724.69;;;4.82;100.00
41654;BME280;68687;52.030;7.110;2024-02-26T12:04:32;99732.16;;;4.87;100.00
41654;BME280;68687;52.030;7.110;2024-02-26T12:07:01;99727.50;;;4.81;100.00
41654;BME280;68687;52.030;7.110;2024-02-26T12:09:40;99723.19;;;4.80;100.00
41654;BME280;68687;52.030;7.110;2024-02-26T12:12:08;99727.53;;;4.73;100.00
41654;BME280;68687;52.030;7.110;2024-02-26T12:14:35;99741.97;;;4.78;100.00
41654;BME280;68687;52.030;7.110;2024-02-26T12:17:00;99733.00;;;4.71;100.00
41654;BME280;68687;52.030;7.110;2024-02-26T12:19:30;99735.16;;;4.84;100.00
41654;BME280;68687;52.030;7.110;2024-02-26T12:21:56;99742.16;;;4.77;100.00
41654;BME280;68687;52.030;7.110;2024-02-26T12:24:28;99743.31;;;4.74;100.00
41654;BME280;68687;52.030;7.110;2024-02-26T12:26:54;99742.00;;;4.70;100.00
41654;BME280;68687;52.030;7.110;2024-02-26T12:29:20;99757.59;;;4.73;100.00
41654;BME280;68687;52.030;7.110;2024-02-26T12:31:45;99748.13;;;4.71;100.00
41654;BME280;68687;52.030;7.110;2024-02-26T12:34:10;99754.94;;;4.81;100.00
41654;BME280;68687;52.030;7.110;2024-02-26T12:36:42;99759.94;;;4.68;100.00
41654;BME280;68687;52.030;7.110;2024-02-26T12:39:07;99752.09;;;4.58;100.00
41654;BME280;68687;52.030;7.110;2024-02-26T12:41:33;99766.72;;;4.62;100.00
41654;BME280;68687;52.030;7.110;2024-02-26T12:43:59;99773.72;;;4.80;100.00
41654;BME280;68687;52.030;7.110;2024-02-26T12:46:25;99776.38;;;4.72;100.00
41654;BME280;68687;52.030;7.110;2024-02-26T12:48:50;99784.69;;;4.77;100.00
41654;BME280;68687;52.030;7.110;2024-02-26T12:51:16;99779.84;;;4.80;100.00
41654;BME280;68687;52.030;7.110;2024-02-26T12:53:43;99785.84;;;4.74;100.00
41654;BME280;68687;52.030;7.110;2024-02-26T12:56:10;99786.34;;;4.70;100.00
41654;BME280;68687;52.030;7.110;2024-02-26T12:58:38;99786.84;;;4.73;100.00
41654;BME280;68687;52.030;7.110;2024-02-26T13:01:05;99788.34;;;4.84;100.00
41654;BME280;68687;52.030;7.110;2024-02-26T13:03:34;99791.66;;;4.70;100.00
41654;BME280;68687;52.030;7.110;2024-02-26T13:06:01;99795.31;;;4.69;100.00
41654;BME280;68687;52.030;7.110;2024-02-26T13:08:27;99794.00;;;4.81;100.00
41654;BME280;68687;52.030;7.110;2024-02-26T13:10:52;99800.47;;;4.78;100.00